Decoded TAF's for Botswana

   
 
Print Page
 
 

Francistown - Botswana, FBFT

ADDS - TAFS form results

Aviation Digital Data Service (ADDS)

Output produced by TAFs form (0422 UTC 24 April 2018)
found at http://aviationweather.gov/adds/tafs/
 
Forecast for: FBFT (FRANCISTOWN , BW)
Text: TAF FBFT 240300Z 2406/2415 00000KT CAVOK
Forecast period: 0600 to 1500 UTC 24 April 2018
Forecast type: FROM: standard forecast or significant change
Winds: calm
Visibility: 6 or more miles (10+ km)
Clouds: not forecast
Weather: NSW  (no significant weather)

Array
Ghanzi - Botswana, FBGZ

ADDS - TAFS form results

Aviation Digital Data Service (ADDS)

Output produced by TAFs form (0422 UTC 24 April 2018)
found at http://aviationweather.gov/adds/tafs/
 
You entered "FBGZ"

Sorry, either there are no data available for your request or you did not enter any valid ICAO airport abbreviations.

See stations.txt for a list of known METAR and TAF locations. Then go back to the ADDS METARs or TAFs page and try again
 
Please try again and, if problems persist, then send mail to ncep.awc.adds@noaa.gov
Array
Kasane - Botswana, FBKE

ADDS - TAFS form results

Aviation Digital Data Service (ADDS)

Output produced by TAFs form (0422 UTC 24 April 2018)
found at http://aviationweather.gov/adds/tafs/
 
Forecast for: FBKE (KASANE , BW)
Text: TAF FBKE 240300Z 2406/2415 12012KT CAVOK
Forecast period: 0600 to 1500 UTC 24 April 2018
Forecast type: FROM: standard forecast or significant change
Winds: from the ESE (120 degrees) at 14 MPH (12 knots; 6.2 m/s)
Visibility: 6 or more miles (10+ km)
Clouds: not forecast
Weather: NSW  (no significant weather)

Array
Maun - Botswana, FBMN

ADDS - TAFS form results

Aviation Digital Data Service (ADDS)

Output produced by TAFs form (0422 UTC 24 April 2018)
found at http://aviationweather.gov/adds/tafs/
 
Forecast for: FBMN (MAUN , BW)
Text: TAF FBMN 240300Z 2406/2415 11011KT CAVOK
Forecast period: 0600 to 1500 UTC 24 April 2018
Forecast type: FROM: standard forecast or significant change
Winds: from the ESE (110 degrees) at 13 MPH (11 knots; 5.7 m/s)
Visibility: 6 or more miles (10+ km)
Clouds: not forecast
Weather: NSW  (no significant weather)

Array
Gaberone Sir Seretsi Kama - Botswana, FBSK

ADDS - TAFS form results

Aviation Digital Data Service (ADDS)

Output produced by TAFs form (0422 UTC 24 April 2018)
found at http://aviationweather.gov/adds/tafs/
 
Forecast for: FBSK (SIR SERETSE KHAM, BW)
Text: TAF FBSK 240300Z 2406/2512 00000KT CAVOK
Forecast period: 0600 to 1800 UTC 24 April 2018
Forecast type: FROM: standard forecast or significant change
Winds: calm
Visibility: 6 or more miles (10+ km)
Clouds: not forecast
Weather: NSW  (no significant weather)
Forecast for: FBSK (SIR SERETSE KHAM, BW)
Text: TAF FBSK 240300Z 2406/2512 00000KT CAVOK
Forecast period: 0600 to 1800 UTC 24 April 2018
Forecast type: FROM: standard forecast or significant change
Winds: calm
Visibility: 6 or more miles (10+ km)
Clouds: not forecast
Weather: NSW  (no significant weather)
Forecast for: FBSK (SIR SERETSE KHAM, BW)
Text: TAF FBSK 240300Z 2406/2512 00000KT CAVOK
Forecast period: 1800 UTC 24 April 2018 to 1200 UTC 25 April 2018
Forecast type: BECOMING: Conditions expected to become as follows by 2000 UTC 24 April 2018
Winds: from the E (100 degrees) at 12 MPH (10 knots; 5.2 m/s)
Visibility: 6 or more miles (10+ km)
Weather: NSW  (no significant weather)
Forecast for: FBSK (SIR SERETSE KHAM, BW)
Text: TAF FBSK 240300Z 2406/2512 00000KT CAVOK
Forecast period: 1800 UTC 24 April 2018 to 1200 UTC 25 April 2018
Forecast type: BECOMING: Conditions expected to become as follows by 2000 UTC 24 April 2018
Winds: from the E (100 degrees) at 12 MPH (10 knots; 5.2 m/s)
Visibility: 6 or more miles (10+ km)
Weather: NSW  (no significant weather)

Array
Selebi Phikwe - Botswana, FBSP

ADDS - TAFS form results

Aviation Digital Data Service (ADDS)

Output produced by TAFs form (0422 UTC 24 April 2018)
found at http://aviationweather.gov/adds/tafs/
 
Forecast for: FBSP (SELEBI PHIKWE , BW)
Text: TAF FBSP 240300Z 2406/2415 VRB02KT CAVOK
Forecast period: 0600 to 1500 UTC 24 April 2018
Forecast type: FROM: standard forecast or significant change
Winds: variable direction winds at 2 MPH (2 knots; 1.0 m/s)
Visibility: 6 or more miles (10+ km)
Clouds: not forecast
Weather: NSW  (no significant weather)

Array